sensor_id;sensor_type;location;lat;lon;timestamp;pressure;altitude;pressure_sealevel;temperature;humidity
10079;BME280;5078;42.544;22.966;2022-12-07T00:01:23;93856.72;;;7.28;100.00
10079;BME280;5078;42.544;22.966;2022-12-07T00:03:52;93862.69;;;7.38;100.00
10079;BME280;5078;42.544;22.966;2022-12-07T00:06:20;93851.00;;;7.41;100.00
10079;BME280;5078;42.544;22.966;2022-12-07T00:08:47;93847.09;;;7.45;100.00
10079;BME280;5078;42.544;22.966;2022-12-07T00:11:15;93852.56;;;7.51;100.00
10079;BME280;5078;42.544;22.966;2022-12-07T00:13:45;93846.97;;;7.54;100.00
10079;BME280;5078;42.544;22.966;2022-12-07T00:16:13;93851.06;;;7.49;100.00
10079;BME280;5078;42.544;22.966;2022-12-07T00:18:41;93849.44;;;7.56;100.00
10079;BME280;5078;42.544;22.966;2022-12-07T00:21:10;93841.69;;;7.54;100.00
10079;BME280;5078;42.544;22.966;2022-12-07T00:23:38;93837.31;;;7.37;100.00
10079;BME280;5078;42.544;22.966;2022-12-07T00:26:06;93835.59;;;7.28;100.00
10079;BME280;5078;42.544;22.966;2022-12-07T00:28:33;93843.63;;;7.18;100.00
10079;BME280;5078;42.544;22.966;2022-12-07T00:31:03;93842.81;;;7.18;100.00
10079;BME280;5078;42.544;22.966;2022-12-07T00:33:31;93852.56;;;7.25;100.00
10079;BME280;5078;42.544;22.966;2022-12-07T00:35:59;93846.88;;;7.38;100.00
10079;BME280;5078;42.544;22.966;2022-12-07T00:38:28;93851.31;;;7.38;100.00
10079;BME280;5078;42.544;22.966;2022-12-07T00:40:56;93847.59;;;7.48;100.00
10079;BME280;5078;42.544;22.966;2022-12-07T00:43:23;93855.69;;;7.55;100.00
10079;BME280;5078;42.544;22.966;2022-12-07T00:45:51;93852.75;;;7.58;100.00
10079;BME280;5078;42.544;22.966;2022-12-07T00:48:19;93843.56;;;7.36;100.00
10079;BME280;5078;42.544;22.966;2022-12-07T00:50:46;93855.84;;;7.53;100.00
10079;BME280;5078;42.544;22.966;2022-12-07T00:53:13;93851.91;;;7.57;100.00
10079;BME280;5078;42.544;22.966;2022-12-07T00:55:40;93846.00;;;7.64;100.00
10079;BME280;5078;42.544;22.966;2022-12-07T00:58:07;93848.34;;;7.67;100.00
10079;BME280;5078;42.544;22.966;2022-12-07T01:00:35;93842.06;;;7.68;100.00
10079;BME280;5078;42.544;22.966;2022-12-07T01:03:03;93843.09;;;7.75;100.00
10079;BME280;5078;42.544;22.966;2022-12-07T01:05:31;93830.31;;;7.54;100.00
10079;BME280;5078;42.544;22.966;2022-12-07T01:07:58;93842.41;;;7.65;100.00
10079;BME280;5078;42.544;22.966;2022-12-07T01:10:27;93841.69;;;7.54;100.00
10079;BME280;5078;42.544;22.966;2022-12-07T01:12:55;93835.59;;;7.54;100.00
10079;BME280;5078;42.544;22.966;2022-12-07T01:15:22;93827.53;;;7.64;100.00
10079;BME280;5078;42.544;22.966;2022-12-07T01:17:49;93828.84;;;7.60;100.00
10079;BME280;5078;42.544;22.966;2022-12-07T01:20:16;93826.91;;;7.70;100.00
10079;BME280;5078;42.544;22.966;2022-12-07T01:22:44;93824.19;;;7.53;100.00
10079;BME280;5078;42.544;22.966;2022-12-07T01:25:11;93818.97;;;7.62;100.00
10079;BME280;5078;42.544;22.966;2022-12-07T01:27:38;93827.91;;;7.69;100.00
10079;BME280;5078;42.544;22.966;2022-12-07T01:30:06;93820.94;;;7.60;100.00
10079;BME280;5078;42.544;22.966;2022-12-07T01:32:33;93803.63;;;7.57;100.00
10079;BME280;5078;42.544;22.966;2022-12-07T01:35:00;93802.16;;;7.63;100.00
10079;BME280;5078;42.544;22.966;2022-12-07T01:37:27;93803.50;;;7.67;100.00
10079;BME280;5078;42.544;22.966;2022-12-07T01:39:55;93808.94;;;7.73;100.00
10079;BME280;5078;42.544;22.966;2022-12-07T01:42:22;93812.22;;;7.67;100.00
10079;BME280;5078;42.544;22.966;2022-12-07T01:47:52;93794.56;;;7.68;100.00
10079;BME280;5078;42.544;22.966;2022-12-07T01:50:20;93802.03;;;7.81;100.00
10079;BME280;5078;42.544;22.966;2022-12-07T01:52:49;93797.09;;;7.86;100.00
10079;BME280;5078;42.544;22.966;2022-12-07T01:55:19;93809.81;;;7.82;100.00
10079;BME280;5078;42.544;22.966;2022-12-07T01:57:49;93797.63;;;7.89;100.00
10079;BME280;5078;42.544;22.966;2022-12-07T02:00:17;93793.16;;;7.90;100.00
10079;BME280;5078;42.544;22.966;2022-12-07T02:02:48;93785.25;;;7.90;100.00
10079;BME280;5078;42.544;22.966;2022-12-07T02:05:17;93783.91;;;7.86;100.00
10079;BME280;5078;42.544;22.966;2022-12-07T02:07:45;93786.06;;;7.82;100.00
10079;BME280;5078;42.544;22.966;2022-12-07T02:10:15;93785.69;;;7.69;100.00
10079;BME280;5078;42.544;22.966;2022-12-07T02:12:44;93783.53;;;7.72;100.00
10079;BME280;5078;42.544;22.966;2022-12-07T02:15:13;93792.59;;;7.70;100.00
10079;BME280;5078;42.544;22.966;2022-12-07T02:17:47;93793.97;;;7.82;100.00
10079;BME280;5078;42.544;22.966;2022-12-07T02:20:28;93787.22;;;7.88;100.00
10079;BME280;5078;42.544;22.966;2022-12-07T02:23:34;93778.63;;;7.86;100.00
10079;BME280;5078;42.544;22.966;2022-12-07T02:26:37;93781.41;;;7.76;100.00
10079;BME280;5078;42.544;22.966;2022-12-07T02:29:20;93781.72;;;7.65;100.00
10079;BME280;5078;42.544;22.966;2022-12-07T02:31:55;93782.69;;;7.64;100.00
10079;BME280;5078;42.544;22.966;2022-12-07T02:34:31;93784.50;;;7.63;100.00
10079;BME280;5078;42.544;22.966;2022-12-07T02:37:03;93784.66;;;7.62;100.00
10079;BME280;5078;42.544;22.966;2022-12-07T02:39:39;93774.56;;;7.49;100.00
10079;BME280;5078;42.544;22.966;2022-12-07T02:42:13;93773.38;;;7.43;100.00
10079;BME280;5078;42.544;22.966;2022-12-07T02:44:42;93769.44;;;7.47;100.00
10079;BME280;5078;42.544;22.966;2022-12-07T02:47:13;93779.00;;;7.48;100.00
10079;BME280;5078;42.544;22.966;2022-12-07T02:50:07;93773.09;;;7.54;100.00
10079;BME280;5078;42.544;22.966;2022-12-07T02:52:34;93771.13;;;7.56;100.00
10079;BME280;5078;42.544;22.966;2022-12-07T02:55:01;93772.06;;;7.47;100.00
10079;BME280;5078;42.544;22.966;2022-12-07T02:57:40;93770.78;;;7.51;100.00
10079;BME280;5078;42.544;22.966;2022-12-07T03:00:14;93775.06;;;7.52;100.00
10079;BME280;5078;42.544;22.966;2022-12-07T03:02:49;93772.88;;;7.40;100.00
10079;BME280;5078;42.544;22.966;2022-12-07T03:05:32;93774.25;;;7.52;100.00
10079;BME280;5078;42.544;22.966;2022-12-07T03:08:10;93769.47;;;7.55;100.00
10079;BME280;5078;42.544;22.966;2022-12-07T03:10:44;93760.50;;;7.40;100.00
10079;BME280;5078;42.544;22.966;2022-12-07T03:13:20;93761.66;;;7.38;100.00
10079;BME280;5078;42.544;22.966;2022-12-07T03:15:55;93765.19;;;7.20;100.00
10079;BME280;5078;42.544;22.966;2022-12-07T03:18:26;93764.84;;;7.15;100.00
10079;BME280;5078;42.544;22.966;2022-12-07T03:20:58;93764.88;;;7.23;100.00
10079;BME280;5078;42.544;22.966;2022-12-07T03:23:29;93763.22;;;7.14;100.00
10079;BME280;5078;42.544;22.966;2022-12-07T03:26:01;93768.84;;;7.19;100.00
10079;BME280;5078;42.544;22.966;2022-12-07T03:28:33;93768.03;;;7.27;100.00
10079;BME280;5078;42.544;22.966;2022-12-07T03:31:05;93763.56;;;7.19;100.00
10079;BME280;5078;42.544;22.966;2022-12-07T03:33:40;93762.06;;;7.17;100.00
10079;BME280;5078;42.544;22.966;2022-12-07T03:36:12;93755.66;;;7.19;100.00
10079;BME280;5078;42.544;22.966;2022-12-07T03:38:45;93750.19;;;7.21;100.00
10079;BME280;5078;42.544;22.966;2022-12-07T03:41:19;93753.19;;;7.26;100.00
10079;BME280;5078;42.544;22.966;2022-12-07T03:43:49;93753.63;;;7.13;100.00
10079;BME280;5078;42.544;22.966;2022-12-07T03:46:21;93750.53;;;7.18;100.00
10079;BME280;5078;42.544;22.966;2022-12-07T03:48:59;93756.97;;;7.23;100.00
10079;BME280;5078;42.544;22.966;2022-12-07T03:51:33;93756.81;;;7.25;100.00
10079;BME280;5078;42.544;22.966;2022-12-07T03:54:08;93758.78;;;7.23;100.00
10079;BME280;5078;42.544;22.966;2022-12-07T03:56:37;93756.19;;;7.31;100.00
10079;BME280;5078;42.544;22.966;2022-12-07T03:59:05;93750.09;;;7.30;100.00
10079;BME280;5078;42.544;22.966;2022-12-07T04:01:33;93750.59;;;7.34;100.00
10079;BME280;5078;42.544;22.966;2022-12-07T04:04:00;93757.84;;;7.32;100.00
10079;BME280;5078;42.544;22.966;2022-12-07T04:06:26;93756.22;;;7.39;100.00
10079;BME280;5078;42.544;22.966;2022-12-07T04:08:53;93753.59;;;7.39;100.00
10079;BME280;5078;42.544;22.966;2022-12-07T04:11:20;93755.88;;;7.34;100.00
10079;BME280;5078;42.544;22.966;2022-12-07T04:13:47;93766.81;;;7.47;100.00
10079;BME280;5078;42.544;22.966;2022-12-07T04:16:32;93763.69;;;7.52;100.00
10079;BME280;5078;42.544;22.966;2022-12-07T04:18:59;93770.72;;;7.43;100.00
10079;BME280;5078;42.544;22.966;2022-12-07T04:21:26;93763.63;;;7.44;100.00
10079;BME280;5078;42.544;22.966;2022-12-07T04:23:52;93767.63;;;7.48;100.00
10079;BME280;5078;42.544;22.966;2022-12-07T04:26:19;93761.19;;;7.42;100.00
10079;BME280;5078;42.544;22.966;2022-12-07T04:28:46;93751.22;;;7.28;100.00
10079;BME280;5078;42.544;22.966;2022-12-07T04:31:12;93763.13;;;7.32;100.00
10079;BME280;5078;42.544;22.966;2022-12-07T04:33:40;93769.88;;;7.34;100.00
10079;BME280;5078;42.544;22.966;2022-12-07T04:36:07;93763.94;;;7.32;100.00
10079;BME280;5078;42.544;22.966;2022-12-07T04:38:34;93763.78;;;7.34;100.00
10079;BME280;5078;42.544;22.966;2022-12-07T04:41:04;93758.91;;;7.13;100.00
10079;BME280;5078;42.544;22.966;2022-12-07T04:43:32;93762.25;;;7.23;100.00
10079;BME280;5078;42.544;22.966;2022-12-07T04:45:59;93762.22;;;7.15;100.00
10079;BME280;5078;42.544;22.966;2022-12-07T04:48:25;93764.03;;;7.15;100.00
10079;BME280;5078;42.544;22.966;2022-12-07T04:50:54;93743.53;;;7.00;100.00
10079;BME280;5078;42.544;22.966;2022-12-07T04:53:21;93754.56;;;7.04;100.00
10079;BME280;5078;42.544;22.966;2022-12-07T04:55:48;93757.97;;;6.96;100.00
10079;BME280;5078;42.544;22.966;2022-12-07T04:58:15;93768.88;;;7.01;100.00
10079;BME280;5078;42.544;22.966;2022-12-07T05:00:42;93761.41;;;7.15;100.00
10079;BME280;5078;42.544;22.966;2022-12-07T05:03:08;93762.06;;;7.17;100.00
10079;BME280;5078;42.544;22.966;2022-12-07T05:05:35;93760.75;;;7.21;100.00
10079;BME280;5078;42.544;22.966;2022-12-07T05:08:03;93753.72;;;7.29;100.00
10079;BME280;5078;42.544;22.966;2022-12-07T05:10:30;93756.50;;;7.28;100.00
10079;BME280;5078;42.544;22.966;2022-12-07T05:12:57;93758.53;;;7.42;100.00
10079;BME280;5078;42.544;22.966;2022-12-07T05:15:23;93766.59;;;7.41;100.00
10079;BME280;5078;42.544;22.966;2022-12-07T05:17:50;93765.59;;;7.33;100.00
10079;BME280;5078;42.544;22.966;2022-12-07T05:20:17;93769.78;;;7.44;100.00
10079;BME280;5078;42.544;22.966;2022-12-07T05:22:44;93763.50;;;7.45;100.00
10079;BME280;5078;42.544;22.966;2022-12-07T05:25:12;93759.56;;;7.49;100.00
10079;BME280;5078;42.544;22.966;2022-12-07T05:27:39;93760.31;;;7.33;100.00
10079;BME280;5078;42.544;22.966;2022-12-07T05:30:07;93757.84;;;7.32;100.00
10079;BME280;5078;42.544;22.966;2022-12-07T05:32:33;93756.53;;;7.36;100.00
10079;BME280;5078;42.544;22.966;2022-12-07T05:35:00;93749.81;;;7.42;100.00
10079;BME280;5078;42.544;22.966;2022-12-07T05:37:27;93760.84;;;7.37;100.00
10079;BME280;5078;42.544;22.966;2022-12-07T05:39:54;93753.63;;;7.47;100.00
10079;BME280;5078;42.544;22.966;2022-12-07T05:42:22;93760.88;;;7.53;100.00
10079;BME280;5078;42.544;22.966;2022-12-07T05:44:48;93750.03;;;7.56;100.00
10079;BME280;5078;42.544;22.966;2022-12-07T05:47:15;93748.50;;;7.46;100.00
10079;BME280;5078;42.544;22.966;2022-12-07T05:49:42;93752.66;;;7.56;100.00
10079;BME280;5078;42.544;22.966;2022-12-07T05:52:09;93754.03;;;7.77;100.00
10079;BME280;5078;42.544;22.966;2022-12-07T05:54:35;93757.34;;;7.79;100.00
10079;BME280;5078;42.544;22.966;2022-12-07T05:57:02;93753.69;;;7.72;100.00
10079;BME280;5078;42.544;22.966;2022-12-07T05:59:30;93757.66;;;7.76;100.00
10079;BME280;5078;42.544;22.966;2022-12-07T06:01:57;93755.00;;;7.68;100.00
10079;BME280;5078;42.544;22.966;2022-12-07T06:04:26;93752.88;;;7.71;100.00
10079;BME280;5078;42.544;22.966;2022-12-07T06:06:53;93758.78;;;7.65;100.00
10079;BME280;5078;42.544;22.966;2022-12-07T06:09:21;93757.63;;;7.68;100.00
10079;BME280;5078;42.544;22.966;2022-12-07T06:11:48;93754.81;;;7.61;100.00
10079;BME280;5078;42.544;22.966;2022-12-07T06:14:34;93758.25;;;7.53;100.00
10079;BME280;5078;42.544;22.966;2022-12-07T06:17:01;93754.03;;;7.69;100.00
10079;BME280;5078;42.544;22.966;2022-12-07T06:19:28;93760.53;;;7.48;100.00
10079;BME280;5078;42.544;22.966;2022-12-07T06:21:54;93758.88;;;7.47;100.00
10079;BME280;5078;42.544;22.966;2022-12-07T06:24:21;93757.97;;;6.96;100.00
10079;BME280;5078;42.544;22.966;2022-12-07T06:26:48;93755.47;;;7.21;100.00
10079;BME280;5078;42.544;22.966;2022-12-07T06:29:16;93753.94;;;7.10;100.00
10079;BME280;5078;42.544;22.966;2022-12-07T06:31:45;93757.59;;;7.09;100.00
10079;BME280;5078;42.544;22.966;2022-12-07T06:34:13;93756.78;;;7.17;100.00
10079;BME280;5078;42.544;22.966;2022-12-07T06:36:41;93761.41;;;7.15;100.00
10079;BME280;5078;42.544;22.966;2022-12-07T06:39:08;93764.72;;;7.17;100.00
10079;BME280;5078;42.544;22.966;2022-12-07T06:41:35;93761.06;;;7.18;100.00
10079;BME280;5078;42.544;22.966;2022-12-07T06:44:03;93760.38;;;7.07;100.00
10079;BME280;5078;42.544;22.966;2022-12-07T06:46:30;93763.91;;;7.24;100.00
10079;BME280;5078;42.544;22.966;2022-12-07T06:48:58;93768.41;;;7.32;100.00
10079;BME280;5078;42.544;22.966;2022-12-07T06:51:25;93762.31;;;7.31;100.00
10079;BME280;5078;42.544;22.966;2022-12-07T06:53:51;93757.38;;;7.37;100.00
10079;BME280;5078;42.544;22.966;2022-12-07T06:56:18;93770.34;;;7.30;100.00
10079;BME280;5078;42.544;22.966;2022-12-07T06:58:45;93771.84;;;7.32;100.00
10079;BME280;5078;42.544;22.966;2022-12-07T07:01:13;93772.66;;;7.33;100.00
10079;BME280;5078;42.544;22.966;2022-12-07T07:03:41;93760.00;;;7.37;100.00
10079;BME280;5078;42.544;22.966;2022-12-07T07:06:09;93771.03;;;7.32;100.00
10079;BME280;5078;42.544;22.966;2022-12-07T07:08:36;93770.03;;;7.33;100.00
10079;BME280;5078;42.544;22.966;2022-12-07T07:11:03;93766.78;;;7.39;100.00
10079;BME280;5078;42.544;22.966;2022-12-07T07:13:30;93760.84;;;7.37;100.00
10079;BME280;5078;42.544;22.966;2022-12-07T07:15:57;93765.78;;;7.40;100.00
10079;BME280;5078;42.544;22.966;2022-12-07T07:18:24;93762.66;;;7.45;100.00
10079;BME280;5078;42.544;22.966;2022-12-07T07:20:51;93760.72;;;7.55;100.00
10079;BME280;5078;42.544;22.966;2022-12-07T07:23:20;93758.91;;;7.55;100.00
10079;BME280;5078;42.544;22.966;2022-12-07T07:25:47;93765.72;;;7.66;100.00
10079;BME280;5078;42.544;22.966;2022-12-07T07:28:14;93760.97;;;7.78;100.00
10079;BME280;5078;42.544;22.966;2022-12-07T07:30:41;93766.75;;;7.82;100.00
10079;BME280;5078;42.544;22.966;2022-12-07T07:33:09;93768.75;;;7.96;100.00
10079;BME280;5078;42.544;22.966;2022-12-07T07:35:36;93775.69;;;7.97;100.00
10079;BME280;5078;42.544;22.966;2022-12-07T07:38:04;93778.50;;;8.04;100.00
10079;BME280;5078;42.544;22.966;2022-12-07T07:40:32;93781.13;;;8.04;100.00
10079;BME280;5078;42.544;22.966;2022-12-07T07:42:59;93780.81;;;8.07;100.00
10079;BME280;5078;42.544;22.966;2022-12-07T07:45:26;93762.50;;;7.97;100.00
10079;BME280;5078;42.544;22.966;2022-12-07T07:47:53;93764.94;;;7.90;100.00
10079;BME280;5078;42.544;22.966;2022-12-07T07:50:20;93789.72;;;7.97;100.00
10079;BME280;5078;42.544;22.966;2022-12-07T07:52:47;93766.97;;;8.05;100.00
10079;BME280;5078;42.544;22.966;2022-12-07T07:55:14;93767.78;;;8.05;100.00
10079;BME280;5078;42.544;22.966;2022-12-07T07:57:43;93774.69;;;7.90;100.00
10079;BME280;5078;42.544;22.966;2022-12-07T08:00:11;93781.94;;;7.96;100.00
10079;BME280;5078;42.544;22.966;2022-12-07T08:02:38;93772.03;;;7.90;100.00
10079;BME280;5078;42.544;22.966;2022-12-07T08:05:06;93777.00;;;8.01;100.00
10079;BME280;5078;42.544;22.966;2022-12-07T08:07:33;93776.03;;;8.10;100.00
10079;BME280;5078;42.544;22.966;2022-12-07T08:10:00;93778.19;;;8.23;100.00
10079;BME280;5078;42.544;22.966;2022-12-07T08:12:29;93768.97;;;8.19;100.00
10079;BME280;5078;42.544;22.966;2022-12-07T08:14:57;93773.56;;;8.33;100.00
10079;BME280;5078;42.544;22.966;2022-12-07T08:17:24;93767.19;;;8.44;100.00
10079;BME280;5078;42.544;22.966;2022-12-07T08:19:51;93762.38;;;8.48;100.00
10079;BME280;5078;42.544;22.966;2022-12-07T08:22:17;93770.00;;;8.42;100.00
10079;BME280;5078;42.544;22.966;2022-12-07T08:24:44;93765.53;;;8.51;100.00
10079;BME280;5078;42.544;22.966;2022-12-07T08:27:11;93763.38;;;8.63;100.00
10079;BME280;5078;42.544;22.966;2022-12-07T08:29:37;93772.13;;;8.72;100.00
10079;BME280;5078;42.544;22.966;2022-12-07T08:32:05;93775.75;;;8.71;100.00
10079;BME280;5078;42.544;22.966;2022-12-07T08:34:32;93776.78;;;8.61;100.00
10079;BME280;5078;42.544;22.966;2022-12-07T08:36:59;93772.13;;;8.80;100.00
10079;BME280;5078;42.544;22.966;2022-12-07T08:39:26;93769.47;;;8.80;100.00
10079;BME280;5078;42.544;22.966;2022-12-07T08:41:53;93761.34;;;8.98;100.00
10079;BME280;5078;42.544;22.966;2022-12-07T08:44:19;93753.94;;;8.85;100.00
10079;BME280;5078;42.544;22.966;2022-12-07T08:46:49;93748.13;;;8.98;100.00
10079;BME280;5078;42.544;22.966;2022-12-07T08:49:22;93754.41;;;8.97;100.00
10079;BME280;5078;42.544;22.966;2022-12-07T08:51:50;93750.94;;;9.04;100.00
10079;BME280;5078;42.544;22.966;2022-12-07T08:54:18;93741.22;;;8.89;100.00
10079;BME280;5078;42.544;22.966;2022-12-07T08:56:46;93749.59;;;9.09;100.00
10079;BME280;5078;42.544;22.966;2022-12-07T08:59:16;93741.09;;;9.29;100.00
10079;BME280;5078;42.544;22.966;2022-12-07T09:01:44;93753.84;;;9.65;100.00
10079;BME280;5078;42.544;22.966;2022-12-07T09:04:10;93747.75;;;9.88;100.00
10079;BME280;5078;42.544;22.966;2022-12-07T09:06:39;93732.66;;;9.97;100.00
10079;BME280;5078;42.544;22.966;2022-12-07T09:09:06;93731.31;;;10.01;100.00
10079;BME280;5078;42.544;22.966;2022-12-07T09:11:33;93741.22;;;10.07;100.00
10079;BME280;5078;42.544;22.966;2022-12-07T09:13:59;93733.41;;;10.36;100.00
10079;BME280;5078;42.544;22.966;2022-12-07T09:16:26;93730.81;;;10.51;100.00
10079;BME280;5078;42.544;22.966;2022-12-07T09:18:53;93731.75;;;10.58;100.00
10079;BME280;5078;42.544;22.966;2022-12-07T09:21:20;93724.19;;;10.85;100.00
10079;BME280;5078;42.544;22.966;2022-12-07T09:23:48;93733.88;;;10.78;100.00
10079;BME280;5078;42.544;22.966;2022-12-07T09:26:15;93729.16;;;11.03;100.00
10079;BME280;5078;42.544;22.966;2022-12-07T09:28:42;93726.22;;;11.13;100.00
10079;BME280;5078;42.544;22.966;2022-12-07T09:31:08;93731.75;;;11.11;100.00
10079;BME280;5078;42.544;22.966;2022-12-07T09:33:35;93720.59;;;11.16;100.00
10079;BME280;5078;42.544;22.966;2022-12-07T09:36:03;93720.09;;;11.12;100.00
10079;BME280;5078;42.544;22.966;2022-12-07T09:38:31;93722.84;;;11.04;100.00
10079;BME280;5078;42.544;22.966;2022-12-07T09:41:04;93711.88;;;11.07;100.00
10079;BME280;5078;42.544;22.966;2022-12-07T09:43:31;93715.63;;;11.13;100.00
10079;BME280;5078;42.544;22.966;2022-12-07T09:45:58;93707.13;;;11.17;100.00
10079;BME280;5078;42.544;22.966;2022-12-07T09:48:30;93704.81;;;11.44;100.00
10079;BME280;5078;42.544;22.966;2022-12-07T09:50:59;93695.19;;;11.58;100.00
10079;BME280;5078;42.544;22.966;2022-12-07T09:53:28;93703.41;;;11.63;100.00
10079;BME280;5078;42.544;22.966;2022-12-07T09:55:57;93694.28;;;11.51;100.00
10079;BME280;5078;42.544;22.966;2022-12-07T09:58:26;93696.81;;;11.74;100.00
10079;BME280;5078;42.544;22.966;2022-12-07T10:00:56;93690.84;;;11.72;100.00
10079;BME280;5078;42.544;22.966;2022-12-07T10:03:25;93687.28;;;11.64;100.00
10079;BME280;5078;42.544;22.966;2022-12-07T10:05:52;93672.69;;;11.75;100.00
10079;BME280;5078;42.544;22.966;2022-12-07T10:08:19;93679.97;;;11.66;100.00
10079;BME280;5078;42.544;22.966;2022-12-07T10:10:50;93678.66;;;11.77;100.00
10079;BME280;5078;42.544;22.966;2022-12-07T10:13:20;93676.38;;;11.74;100.00
10079;BME280;5078;42.544;22.966;2022-12-07T10:15:50;93674.53;;;11.90;100.00
10079;BME280;5078;42.544;22.966;2022-12-07T10:18:27;93678.91;;;11.97;100.00
10079;BME280;5078;42.544;22.966;2022-12-07T10:21:16;93671.19;;;11.66;100.00
10079;BME280;5078;42.544;22.966;2022-12-07T10:23:59;93666.00;;;11.79;100.00
10079;BME280;5078;42.544;22.966;2022-12-07T10:26:30;93669.00;;;11.55;100.00
10079;BME280;5078;42.544;22.966;2022-12-07T10:29:00;93657.78;;;11.74;99.74
10079;BME280;5078;42.544;22.966;2022-12-07T10:31:29;93661.34;;;11.81;99.35
10079;BME280;5078;42.544;22.966;2022-12-07T10:33:58;93659.78;;;11.87;98.87
10079;BME280;5078;42.544;22.966;2022-12-07T10:36:26;93652.63;;;11.87;99.37
10079;BME280;5078;42.544;22.966;2022-12-07T10:39:00;93649.81;;;11.89;98.33
10079;BME280;5078;42.544;22.966;2022-12-07T10:41:28;93648.41;;;11.93;98.02
10079;BME280;5078;42.544;22.966;2022-12-07T10:43:56;93640.63;;;11.92;98.91
10079;BME280;5078;42.544;22.966;2022-12-07T10:46:49;93636.47;;;12.04;98.96
10079;BME280;5078;42.544;22.966;2022-12-07T10:49:59;93628.94;;;11.71;99.79
10079;BME280;5078;42.544;22.966;2022-12-07T10:52:39;93624.78;;;11.83;100.00
10079;BME280;5078;42.544;22.966;2022-12-07T10:55:20;93623.81;;;12.06;98.89
10079;BME280;5078;42.544;22.966;2022-12-07T10:57:59;93616.72;;;12.13;97.52
10079;BME280;5078;42.544;22.966;2022-12-07T11:00:35;93607.09;;;12.12;96.51
10079;BME280;5078;42.544;22.966;2022-12-07T11:06:16;93616.97;;;12.74;92.55
10079;BME280;5078;42.544;22.966;2022-12-07T11:09:08;93613.88;;;13.06;89.08
10079;BME280;5078;42.544;22.966;2022-12-07T11:11:46;93611.56;;;12.96;87.37
10079;BME280;5078;42.544;22.966;2022-12-07T11:14:24;93604.63;;;13.02;87.59
10079;BME280;5078;42.544;22.966;2022-12-07T11:16:56;93604.09;;;13.13;86.32
10079;BME280;5078;42.544;22.966;2022-12-07T11:22:24;93601.44;;;12.78;84.44
10079;BME280;5078;42.544;22.966;2022-12-07T11:24:59;93593.06;;;12.81;83.46
10079;BME280;5078;42.544;22.966;2022-12-07T11:27:35;93593.75;;;12.97;82.14
10079;BME280;5078;42.544;22.966;2022-12-07T11:30:22;93587.22;;;12.64;83.38
10079;BME280;5078;42.544;22.966;2022-12-07T11:33:09;93587.63;;;12.61;84.11
10079;BME280;5078;42.544;22.966;2022-12-07T11:35:46;93576.75;;;12.91;82.51
10079;BME280;5078;42.544;22.966;2022-12-07T11:38:23;93583.22;;;13.16;81.85
10079;BME280;5078;42.544;22.966;2022-12-07T11:40:55;93582.22;;;13.24;81.21
10079;BME280;5078;42.544;22.966;2022-12-07T11:43:46;93589.69;;;13.35;79.87
10079;BME280;5078;42.544;22.966;2022-12-07T11:46:18;93576.75;;;13.32;80.38
10079;BME280;5078;42.544;22.966;2022-12-07T11:48:50;93574.97;;;13.59;78.79
10079;BME280;5078;42.544;22.966;2022-12-07T11:51:21;93580.31;;;13.59;77.36
10079;BME280;5078;42.544;22.966;2022-12-07T11:53:54;93576.19;;;13.50;77.45
10079;BME280;5078;42.544;22.966;2022-12-07T11:56:24;93577.63;;;13.05;78.74
10079;BME280;5078;42.544;22.966;2022-12-07T11:58:55;93584.03;;;13.10;78.55
10079;BME280;5078;42.544;22.966;2022-12-07T12:01:42;93568.25;;;13.09;77.63
10079;BME280;5078;42.544;22.966;2022-12-07T12:04:26;93567.75;;;12.92;78.84
10079;BME280;5078;42.544;22.966;2022-12-07T12:06:55;93552.63;;;12.99;77.30
10079;BME280;5078;42.544;22.966;2022-12-07T12:09:27;93572.75;;;13.08;77.44
10079;BME280;5078;42.544;22.966;2022-12-07T12:12:16;93566.97;;;12.98;78.31
10079;BME280;5078;42.544;22.966;2022-12-07T12:14:55;93552.94;;;12.83;77.63
10079;BME280;5078;42.544;22.966;2022-12-07T12:17:48;93550.91;;;12.85;77.89
10079;BME280;5078;42.544;22.966;2022-12-07T12:20:21;93552.34;;;12.81;77.38
10079;BME280;5078;42.544;22.966;2022-12-07T12:22:54;93546.69;;;12.56;79.19
10079;BME280;5078;42.544;22.966;2022-12-07T12:25:27;93536.22;;;12.54;78.76
10079;BME280;5078;42.544;22.966;2022-12-07T12:27:57;93537.78;;;12.77;78.14
10079;BME280;5078;42.544;22.966;2022-12-07T12:30:30;93533.19;;;12.57;77.52
10079;BME280;5078;42.544;22.966;2022-12-07T12:33:03;93530.72;;;12.56;77.31
10079;BME280;5078;42.544;22.966;2022-12-07T12:35:33;93533.00;;;12.65;77.60
10079;BME280;5078;42.544;22.966;2022-12-07T12:38:33;93528.84;;;12.49;77.44
10079;BME280;5078;42.544;22.966;2022-12-07T12:41:03;93526.56;;;12.46;76.80
10079;BME280;5078;42.544;22.966;2022-12-07T12:43:50;93532.06;;;12.73;77.18
10079;BME280;5078;42.544;22.966;2022-12-07T12:46:51;93530.59;;;12.70;77.02
10079;BME280;5078;42.544;22.966;2022-12-07T12:49:42;93527.84;;;12.50;79.10
10079;BME280;5078;42.544;22.966;2022-12-07T12:55:19;93540.44;;;12.42;80.21
10079;BME280;5078;42.544;22.966;2022-12-07T13:01:40;93542.53;;;12.46;81.21
10079;BME280;5078;42.544;22.966;2022-12-07T13:04:17;93539.41;;;12.43;81.79
10079;BME280;5078;42.544;22.966;2022-12-07T13:06:47;93534.72;;;12.38;81.42
10079;BME280;5078;42.544;22.966;2022-12-07T13:09:20;93537.78;;;12.42;82.09
10079;BME280;5078;42.544;22.966;2022-12-07T13:11:49;93524.59;;;12.27;82.68
10079;BME280;5078;42.544;22.966;2022-12-07T13:14:53;93535.13;;;12.42;80.96
10079;BME280;5078;42.544;22.966;2022-12-07T13:17:59;93542.19;;;12.28;80.78
10079;BME280;5078;42.544;22.966;2022-12-07T13:20:50;93536.28;;;12.26;81.73
10079;BME280;5078;42.544;22.966;2022-12-07T13:23:29;93525.75;;;12.18;81.88
10079;BME280;5078;42.544;22.966;2022-12-07T13:26:16;93521.88;;;12.14;81.68
10079;BME280;5078;42.544;22.966;2022-12-07T13:28:46;93527.91;;;12.01;81.99
10079;BME280;5078;42.544;22.966;2022-12-07T13:31:19;93537.91;;;11.99;82.84
10079;BME280;5078;42.544;22.966;2022-12-07T13:33:48;93533.59;;;11.98;83.29
10079;BME280;5078;42.544;22.966;2022-12-07T13:36:20;93515.63;;;12.00;83.57